Riviera Beach, FL (33404)

3:40 PM EDT on September 03, 2015 (GMT -0400)
North Palm Beach Village | | Change Station
CLOSE
Current Station
Personal Weather Station
Location: North Palm Beach, FL
Elevation: 30 ft
Nearby Weather Stations

Elev 30 ft 26.81 °N, 80.06 °W | Updated 10 minutes ago

Mostly Cloudy
Mostly Cloudy
99.3 °F
Feels Like 118 °F
N
4.2
Wind Variable Wind from East

Today
High -- | Low -- °F
--% Chance of Precip.
Yesterday
High -- | Low -- °F
Precip. -- in
7:00 AM 7:38 PM
Waning Gibbous, 67% visible
Pressure 29.95 in
Visibility 10.0 miles
Clouds Scattered Clouds 4100 ft
Mostly Cloudy 7000 ft
Mostly Cloudy 25000 ft
Heat Index 118 °F
Dew Point 78 °F
Humidity 52%
Rainfall 0.00 in
Snow Depth Not available.
UV 7 out of 12
Pollen 4.70 out of 12
Air Quality Not available.
Flu Activity Not available.
METAR KPBI 031853Z 11010KT 10SM SCT041TCU BKN070 BKN250 33/24 A2995 RMK AO2 SLP140 TCU S-NW CB DSNT N T03280239
Pressure 29.95 in
Visibility 10.0 miles
Clouds Scattered Clouds 4100 ft
Mostly Cloudy 7000 ft
Mostly Cloudy 25000 ft
Heat Index 118 °F
Dew Point 78 °F
Humidity 52%
Rainfall 0.00 in
Snow Depth Not available.
UV 7 out of 12
Pollen 4.70 out of 12
Air Quality Not available.
Flu Activity Not available.
METAR KPBI 031853Z 11010KT 10SM SCT041TCU BKN070 BKN250 33/24 A2995 RMK AO2 SLP140 TCU S-NW CB DSNT N T03280239

10-Day Weather Forecast

×

Almanac

Astronomy

Sep. 03, 2015 Rise Set
Actual Time
Civil Twilight
Nautical Twilight
Astronomical Twilight
Moon
Length of Visible Light
Length of Day
Tomorrow will be .
, % of the Moon is Illuminated

Today's Extremes

State Highs State Lows

Community

WunderPhotos

Upload Photos

1,852,017 photos uploaded!

WunderBlogs® & News

Nearby

Air Quality

  Air Quality AQ Index Pollutant
Not available.

Snow Depth

Station Depth Elevation

Earthquake Activity

City Distance Mag. Time & Date
Minimum magnitude displayed is 2.5.

Coastal Water Temperatures

Place Temperature

Stations

Nearby Weather Stations

Station Location Temp. Windchill Dew Point Humidity Wind Precip. Elev Updated Type